Airfield :
LOGIN :

Register | Disclaimer

   EN    FR    IT 

 










Legend :    VFR   Marginal VFR   IFR   Intensive IFR   Very Intensive IFR
Visi :
Ceiling :
>= 8 km
>= 3000ft
5 to 8 km
1000 to 3000 ft
1500m to 5 km
500 to 1000 ft
800 to 1500m
200 to 500 ft
< 800m
< 200 ft
Symbols :   Thunderstorms  Fog  Heavy snow  Heavy precipitations  Wind > 20 kt
SIGMETs :     Misc.  Thunderstorms  Icing  Turbulence  Mountain Waves  Volcanic Ashes







- Airport Elevation : 157 ft
- IATA code : SXF


EDDB - Berlin Schönefeld

CURRENT METAR :
  • 250820Z 22012KT CAVOK 15/09 Q1005 BECMG 23015G25KT

EXPIRED METARs :
  • 250750Z 22011KT 9999 -RA NSC 14/09 Q1005 BECMG 23015G25KT
  • 250720Z 22011KT 9999 -RA BKN048 14/09 Q1005 BECMG 23015G25KT
  • 250650Z 21012KT CAVOK 14/09 Q1005 NOSIG
  • 250620Z 21009KT CAVOK 14/09 Q1006 NOSIG
  • 250550Z 20008KT CAVOK 13/09 Q1006 NOSIG

TAF TAF EDDB
Valid from the 25 at 06:00 until the 26 at 06:00 UTC


250500Z 2506/2606 19006KT 9999 BKN040
BECMG 2506/2509 24015G25KT
PROB30
TEMPO 2508/2513 SHRA BKN020CB
BECMG 2509/2512 25020G35KT
PROB30
TEMPO 2512/2516 27025G45KT
BECMG 2516/2518 30007KT
BECMG 2521/2523 22003KT
No reported NOTAMs for that airfield.



MET'MAP, your aeronautical weather chart ! - Copyright ORBIFLY December 2007 - Disclaimer

ORBIFLY MET'MAP TEAM :

Programming & Development : Alexandra Zaïnal
Concept & Development : Baudouin d'Aumeries
Co-Development & Prog : Marc-Olivier Méhu
Technical & hardware support : Manuel Goepfert

Contact : metmap@orbifly.com




SOURCES & CREDITS :

   NOAA